sensor_id;sensor_type;location;lat;lon;timestamp;P1;durP1;ratioP1;P2;durP2;ratioP2
51475;SDS011;37554;50.362;7.568;2022-10-17T00:02:00;2.63;;;1.45;;
51475;SDS011;37554;50.362;7.568;2022-10-17T00:04:26;2.00;;;1.45;;
51475;SDS011;37554;50.362;7.568;2022-10-17T00:06:51;3.10;;;1.50;;
51475;SDS011;37554;50.362;7.568;2022-10-17T00:09:17;1.65;;;1.30;;
51475;SDS011;37554;50.362;7.568;2022-10-17T00:11:42;1.70;;;1.33;;
51475;SDS011;37554;50.362;7.568;2022-10-17T00:14:08;3.70;;;1.60;;
51475;SDS011;37554;50.362;7.568;2022-10-17T00:16:34;2.10;;;1.40;;
51475;SDS011;37554;50.362;7.568;2022-10-17T00:19:03;2.42;;;1.33;;
51475;SDS011;37554;50.362;7.568;2022-10-17T00:21:30;2.50;;;1.60;;
51475;SDS011;37554;50.362;7.568;2022-10-17T00:23:56;1.95;;;1.17;;
51475;SDS011;37554;50.362;7.568;2022-10-17T00:26:23;2.33;;;1.52;;
51475;SDS011;37554;50.362;7.568;2022-10-17T00:28:50;3.78;;;1.50;;
51475;SDS011;37554;50.362;7.568;2022-10-17T00:31:17;1.83;;;1.52;;
51475;SDS011;37554;50.362;7.568;2022-10-17T00:33:44;2.17;;;1.10;;
51475;SDS011;37554;50.362;7.568;2022-10-17T00:38:37;1.55;;;1.30;;
51475;SDS011;37554;50.362;7.568;2022-10-17T00:41:04;1.55;;;1.40;;
51475;SDS011;37554;50.362;7.568;2022-10-17T00:46:18;3.08;;;1.23;;
51475;SDS011;37554;50.362;7.568;2022-10-17T00:48:45;2.08;;;1.20;;
51475;SDS011;37554;50.362;7.568;2022-10-17T00:51:14;1.80;;;1.38;;
51475;SDS011;37554;50.362;7.568;2022-10-17T00:53:40;1.45;;;1.25;;
51475;SDS011;37554;50.362;7.568;2022-10-17T00:56:06;2.85;;;1.20;;
51475;SDS011;37554;50.362;7.568;2022-10-17T00:58:32;1.85;;;1.40;;
51475;SDS011;37554;50.362;7.568;2022-10-17T01:00:57;2.00;;;1.23;;
51475;SDS011;37554;50.362;7.568;2022-10-17T01:03:23;1.45;;;1.20;;
51475;SDS011;37554;50.362;7.568;2022-10-17T01:05:49;1.88;;;1.35;;
51475;SDS011;37554;50.362;7.568;2022-10-17T01:08:15;1.48;;;1.30;;
51475;SDS011;37554;50.362;7.568;2022-10-17T01:13:53;1.83;;;1.40;;
51475;SDS011;37554;50.362;7.568;2022-10-17T01:16:30;1.13;;;1.02;;
51475;SDS011;37554;50.362;7.568;2022-10-17T01:19:47;3.45;;;1.20;;
51475;SDS011;37554;50.362;7.568;2022-10-17T01:22:11;2.13;;;1.30;;
51475;SDS011;37554;50.362;7.568;2022-10-17T01:24:47;1.33;;;1.15;;
51475;SDS011;37554;50.362;7.568;2022-10-17T01:33:11;1.50;;;1.10;;
51475;SDS011;37554;50.362;7.568;2022-10-17T01:40:49;1.17;;;1.08;;
51475;SDS011;37554;50.362;7.568;2022-10-17T01:43:32;1.10;;;0.90;;
51475;SDS011;37554;50.362;7.568;2022-10-17T01:48:41;2.22;;;1.20;;
51475;SDS011;37554;50.362;7.568;2022-10-17T01:51:12;2.38;;;1.15;;
51475;SDS011;37554;50.362;7.568;2022-10-17T01:54:01;1.45;;;1.00;;
51475;SDS011;37554;50.362;7.568;2022-10-17T01:59:10;1.33;;;1.10;;
51475;SDS011;37554;50.362;7.568;2022-10-17T02:01:49;1.65;;;1.20;;
51475;SDS011;37554;50.362;7.568;2022-10-17T02:04:17;1.15;;;1.05;;
51475;SDS011;37554;50.362;7.568;2022-10-17T02:06:43;1.77;;;1.10;;
51475;SDS011;37554;50.362;7.568;2022-10-17T02:09:27;1.35;;;1.20;;
51475;SDS011;37554;50.362;7.568;2022-10-17T02:14:31;1.92;;;1.15;;
51475;SDS011;37554;50.362;7.568;2022-10-17T02:20:05;1.67;;;1.02;;
51475;SDS011;37554;50.362;7.568;2022-10-17T02:22:42;1.52;;;1.10;;
51475;SDS011;37554;50.362;7.568;2022-10-17T02:33:08;2.10;;;0.90;;
51475;SDS011;37554;50.362;7.568;2022-10-17T02:35:42;1.13;;;1.00;;
51475;SDS011;37554;50.362;7.568;2022-10-17T02:38:11;1.10;;;0.77;;
51475;SDS011;37554;50.362;7.568;2022-10-17T02:40:38;1.05;;;0.80;;
51475;SDS011;37554;50.362;7.568;2022-10-17T02:43:05;1.17;;;1.00;;
51475;SDS011;37554;50.362;7.568;2022-10-17T02:45:32;1.98;;;1.00;;
51475;SDS011;37554;50.362;7.568;2022-10-17T02:50:32;1.08;;;0.93;;
51475;SDS011;37554;50.362;7.568;2022-10-17T02:53:03;2.55;;;1.10;;
51475;SDS011;37554;50.362;7.568;2022-10-17T02:58:07;1.45;;;1.20;;
51475;SDS011;37554;50.362;7.568;2022-10-17T03:00:40;1.83;;;1.02;;
51475;SDS011;37554;50.362;7.568;2022-10-17T03:05:51;1.45;;;1.00;;
51475;SDS011;37554;50.362;7.568;2022-10-17T03:08:18;0.77;;;0.68;;
51475;SDS011;37554;50.362;7.568;2022-10-17T03:10:44;1.10;;;1.00;;
51475;SDS011;37554;50.362;7.568;2022-10-17T03:13:09;0.60;;;0.60;;
51475;SDS011;37554;50.362;7.568;2022-10-17T03:15:35;1.42;;;1.10;;
51475;SDS011;37554;50.362;7.568;2022-10-17T03:18:01;0.90;;;0.80;;
51475;SDS011;37554;50.362;7.568;2022-10-17T03:20:27;1.58;;;0.80;;
51475;SDS011;37554;50.362;7.568;2022-10-17T03:22:53;1.08;;;0.98;;
51475;SDS011;37554;50.362;7.568;2022-10-17T03:25:18;1.20;;;1.10;;
51475;SDS011;37554;50.362;7.568;2022-10-17T03:27:44;0.95;;;0.63;;
51475;SDS011;37554;50.362;7.568;2022-10-17T03:30:10;1.05;;;0.88;;
51475;SDS011;37554;50.362;7.568;2022-10-17T03:32:36;1.35;;;0.80;;
51475;SDS011;37554;50.362;7.568;2022-10-17T03:35:01;1.08;;;0.80;;
51475;SDS011;37554;50.362;7.568;2022-10-17T03:37:28;1.00;;;0.90;;
51475;SDS011;37554;50.362;7.568;2022-10-17T03:39:53;1.17;;;0.82;;
51475;SDS011;37554;50.362;7.568;2022-10-17T03:42:19;1.55;;;0.95;;
51475;SDS011;37554;50.362;7.568;2022-10-17T03:44:44;2.10;;;0.93;;
51475;SDS011;37554;50.362;7.568;2022-10-17T03:47:10;2.65;;;0.80;;
51475;SDS011;37554;50.362;7.568;2022-10-17T03:49:35;0.77;;;0.75;;
51475;SDS011;37554;50.362;7.568;2022-10-17T03:52:01;2.20;;;0.80;;
51475;SDS011;37554;50.362;7.568;2022-10-17T03:54:27;1.20;;;0.90;;
51475;SDS011;37554;50.362;7.568;2022-10-17T03:56:53;1.48;;;0.60;;
51475;SDS011;37554;50.362;7.568;2022-10-17T03:59:18;2.70;;;1.10;;
51475;SDS011;37554;50.362;7.568;2022-10-17T04:01:44;0.88;;;0.80;;
51475;SDS011;37554;50.362;7.568;2022-10-17T04:04:10;0.70;;;0.70;;
51475;SDS011;37554;50.362;7.568;2022-10-17T04:06:35;0.60;;;0.55;;
51475;SDS011;37554;50.362;7.568;2022-10-17T04:09:02;3.58;;;0.90;;
51475;SDS011;37554;50.362;7.568;2022-10-17T04:11:28;1.02;;;0.75;;
51475;SDS011;37554;50.362;7.568;2022-10-17T04:13:54;1.02;;;0.80;;
51475;SDS011;37554;50.362;7.568;2022-10-17T04:16:22;0.70;;;0.70;;
51475;SDS011;37554;50.362;7.568;2022-10-17T04:18:51;0.85;;;0.85;;
51475;SDS011;37554;50.362;7.568;2022-10-17T04:21:19;1.10;;;0.77;;
51475;SDS011;37554;50.362;7.568;2022-10-17T04:23:45;0.90;;;0.73;;
51475;SDS011;37554;50.362;7.568;2022-10-17T04:26:10;0.60;;;0.60;;
51475;SDS011;37554;50.362;7.568;2022-10-17T04:28:36;0.90;;;0.80;;
51475;SDS011;37554;50.362;7.568;2022-10-17T04:31:05;1.08;;;0.70;;
51475;SDS011;37554;50.362;7.568;2022-10-17T04:33:33;0.75;;;0.55;;
51475;SDS011;37554;50.362;7.568;2022-10-17T04:36:03;1.27;;;0.73;;
51475;SDS011;37554;50.362;7.568;2022-10-17T04:38:37;1.08;;;0.70;;
51475;SDS011;37554;50.362;7.568;2022-10-17T04:41:04;0.80;;;0.80;;
51475;SDS011;37554;50.362;7.568;2022-10-17T04:43:35;0.88;;;0.60;;
51475;SDS011;37554;50.362;7.568;2022-10-17T04:46:02;2.15;;;0.70;;
51475;SDS011;37554;50.362;7.568;2022-10-17T04:48:30;1.00;;;0.80;;
51475;SDS011;37554;50.362;7.568;2022-10-17T04:51:00;0.95;;;0.75;;
51475;SDS011;37554;50.362;7.568;2022-10-17T04:53:27;1.17;;;0.82;;
51475;SDS011;37554;50.362;7.568;2022-10-17T04:55:55;0.77;;;0.50;;
51475;SDS011;37554;50.362;7.568;2022-10-17T04:58:21;1.08;;;0.75;;
51475;SDS011;37554;50.362;7.568;2022-10-17T05:00:47;2.17;;;0.70;;
51475;SDS011;37554;50.362;7.568;2022-10-17T05:03:12;2.78;;;0.90;;
51475;SDS011;37554;50.362;7.568;2022-10-17T05:05:39;1.95;;;0.70;;
51475;SDS011;37554;50.362;7.568;2022-10-17T05:08:06;0.93;;;0.80;;
51475;SDS011;37554;50.362;7.568;2022-10-17T05:10:50;0.80;;;0.65;;
51475;SDS011;37554;50.362;7.568;2022-10-17T05:13:16;0.75;;;0.50;;
51475;SDS011;37554;50.362;7.568;2022-10-17T05:15:41;0.70;;;0.70;;
51475;SDS011;37554;50.362;7.568;2022-10-17T05:18:07;0.80;;;0.80;;
51475;SDS011;37554;50.362;7.568;2022-10-17T05:20:32;0.70;;;0.70;;
51475;SDS011;37554;50.362;7.568;2022-10-17T05:22:58;0.70;;;0.70;;
51475;SDS011;37554;50.362;7.568;2022-10-17T05:25:24;0.65;;;0.65;;
51475;SDS011;37554;50.362;7.568;2022-10-17T05:27:50;0.77;;;0.73;;
51475;SDS011;37554;50.362;7.568;2022-10-17T05:30:15;1.30;;;0.70;;
51475;SDS011;37554;50.362;7.568;2022-10-17T05:32:41;2.58;;;0.70;;
51475;SDS011;37554;50.362;7.568;2022-10-17T05:35:07;0.95;;;0.80;;
51475;SDS011;37554;50.362;7.568;2022-10-17T05:37:32;1.70;;;0.65;;
51475;SDS011;37554;50.362;7.568;2022-10-17T05:39:58;0.93;;;0.60;;
51475;SDS011;37554;50.362;7.568;2022-10-17T05:42:24;3.00;;;0.80;;
51475;SDS011;37554;50.362;7.568;2022-10-17T05:44:49;2.30;;;1.20;;
51475;SDS011;37554;50.362;7.568;2022-10-17T05:47:15;2.60;;;0.98;;
51475;SDS011;37554;50.362;7.568;2022-10-17T05:49:41;1.30;;;0.93;;
51475;SDS011;37554;50.362;7.568;2022-10-17T05:52:06;1.50;;;1.00;;
51475;SDS011;37554;50.362;7.568;2022-10-17T05:54:32;1.73;;;0.90;;
51475;SDS011;37554;50.362;7.568;2022-10-17T05:56:57;3.20;;;0.95;;
51475;SDS011;37554;50.362;7.568;2022-10-17T05:59:23;1.50;;;0.90;;
51475;SDS011;37554;50.362;7.568;2022-10-17T06:01:50;2.72;;;0.80;;
51475;SDS011;37554;50.362;7.568;2022-10-17T06:04:16;1.15;;;0.82;;
51475;SDS011;37554;50.362;7.568;2022-10-17T06:06:42;1.50;;;0.90;;
51475;SDS011;37554;50.362;7.568;2022-10-17T06:09:07;1.42;;;0.82;;
51475;SDS011;37554;50.362;7.568;2022-10-17T06:11:33;2.40;;;1.08;;
51475;SDS011;37554;50.362;7.568;2022-10-17T06:13:59;1.90;;;0.93;;
51475;SDS011;37554;50.362;7.568;2022-10-17T06:16:25;2.60;;;1.00;;
51475;SDS011;37554;50.362;7.568;2022-10-17T06:18:51;1.45;;;0.90;;
51475;SDS011;37554;50.362;7.568;2022-10-17T06:21:18;1.73;;;0.90;;
51475;SDS011;37554;50.362;7.568;2022-10-17T06:23:52;1.83;;;0.90;;
51475;SDS011;37554;50.362;7.568;2022-10-17T06:26:17;1.85;;;0.90;;
51475;SDS011;37554;50.362;7.568;2022-10-17T06:28:44;1.05;;;1.00;;
51475;SDS011;37554;50.362;7.568;2022-10-17T06:31:10;6.45;;;2.40;;
51475;SDS011;37554;50.362;7.568;2022-10-17T06:33:38;7.97;;;2.85;;
51475;SDS011;37554;50.362;7.568;2022-10-17T06:36:05;6.70;;;2.63;;
51475;SDS011;37554;50.362;7.568;2022-10-17T06:38:34;5.95;;;2.20;;
51475;SDS011;37554;50.362;7.568;2022-10-17T06:43:37;5.00;;;2.03;;
51475;SDS011;37554;50.362;7.568;2022-10-17T06:46:04;3.15;;;1.60;;
51475;SDS011;37554;50.362;7.568;2022-10-17T06:48:30;2.17;;;1.70;;
51475;SDS011;37554;50.362;7.568;2022-10-17T06:50:57;5.38;;;1.50;;
51475;SDS011;37554;50.362;7.568;2022-10-17T06:53:26;3.42;;;1.40;;
51475;SDS011;37554;50.362;7.568;2022-10-17T06:55:52;2.97;;;1.30;;
51475;SDS011;37554;50.362;7.568;2022-10-17T06:58:19;2.90;;;1.40;;
51475;SDS011;37554;50.362;7.568;2022-10-17T07:00:46;2.83;;;1.23;;
51475;SDS011;37554;50.362;7.568;2022-10-17T07:03:11;5.65;;;1.30;;
51475;SDS011;37554;50.362;7.568;2022-10-17T07:05:37;2.88;;;1.30;;
51475;SDS011;37554;50.362;7.568;2022-10-17T07:08:06;3.65;;;1.58;;
51475;SDS011;37554;50.362;7.568;2022-10-17T07:10:31;5.30;;;1.52;;
51475;SDS011;37554;50.362;7.568;2022-10-17T07:13:02;2.70;;;1.50;;
51475;SDS011;37554;50.362;7.568;2022-10-17T07:15:28;2.10;;;1.42;;
51475;SDS011;37554;50.362;7.568;2022-10-17T07:17:53;2.25;;;1.30;;
51475;SDS011;37554;50.362;7.568;2022-10-17T07:20:19;1.73;;;1.33;;
51475;SDS011;37554;50.362;7.568;2022-10-17T07:22:45;3.90;;;1.48;;
51475;SDS011;37554;50.362;7.568;2022-10-17T07:25:10;2.30;;;1.17;;
51475;SDS011;37554;50.362;7.568;2022-10-17T07:27:36;2.40;;;1.15;;
51475;SDS011;37554;50.362;7.568;2022-10-17T07:30:02;1.67;;;1.25;;
51475;SDS011;37554;50.362;7.568;2022-10-17T07:32:28;2.90;;;1.60;;
51475;SDS011;37554;50.362;7.568;2022-10-17T07:34:53;3.42;;;1.27;;
51475;SDS011;37554;50.362;7.568;2022-10-17T07:37:19;7.00;;;1.33;;
51475;SDS011;37554;50.362;7.568;2022-10-17T07:39:45;3.08;;;1.30;;
51475;SDS011;37554;50.362;7.568;2022-10-17T07:42:10;2.55;;;1.20;;
51475;SDS011;37554;50.362;7.568;2022-10-17T07:44:36;3.78;;;1.30;;
51475;SDS011;37554;50.362;7.568;2022-10-17T07:47:01;2.38;;;1.23;;
51475;SDS011;37554;50.362;7.568;2022-10-17T07:49:27;2.05;;;1.23;;
51475;SDS011;37554;50.362;7.568;2022-10-17T07:51:53;1.70;;;1.10;;
51475;SDS011;37554;50.362;7.568;2022-10-17T07:54:18;1.48;;;1.17;;
51475;SDS011;37554;50.362;7.568;2022-10-17T07:56:44;2.80;;;1.17;;
51475;SDS011;37554;50.362;7.568;2022-10-17T07:59:14;1.20;;;1.00;;
51475;SDS011;37554;50.362;7.568;2022-10-17T08:01:43;2.90;;;1.10;;
51475;SDS011;37554;50.362;7.568;2022-10-17T08:04:08;1.38;;;0.90;;
51475;SDS011;37554;50.362;7.568;2022-10-17T08:06:34;4.20;;;1.00;;
51475;SDS011;37554;50.362;7.568;2022-10-17T08:09:00;2.33;;;1.08;;
51475;SDS011;37554;50.362;7.568;2022-10-17T08:11:25;1.40;;;1.30;;
51475;SDS011;37554;50.362;7.568;2022-10-17T08:13:51;2.55;;;1.10;;
51475;SDS011;37554;50.362;7.568;2022-10-17T08:16:17;2.53;;;1.02;;
51475;SDS011;37554;50.362;7.568;2022-10-17T08:18:42;1.20;;;1.10;;
51475;SDS011;37554;50.362;7.568;2022-10-17T08:21:08;1.85;;;1.10;;
51475;SDS011;37554;50.362;7.568;2022-10-17T08:23:35;1.33;;;0.90;;
51475;SDS011;37554;50.362;7.568;2022-10-17T08:26:02;1.23;;;1.13;;
51475;SDS011;37554;50.362;7.568;2022-10-17T08:28:29;1.55;;;1.08;;
51475;SDS011;37554;50.362;7.568;2022-10-17T08:31:02;1.65;;;0.95;;
51475;SDS011;37554;50.362;7.568;2022-10-17T08:33:31;1.75;;;1.10;;
51475;SDS011;37554;50.362;7.568;2022-10-17T08:35:58;2.50;;;1.20;;
51475;SDS011;37554;50.362;7.568;2022-10-17T08:38:24;1.85;;;1.40;;
51475;SDS011;37554;50.362;7.568;2022-10-17T08:40:50;1.98;;;1.30;;
51475;SDS011;37554;50.362;7.568;2022-10-17T08:45:52;2.00;;;1.20;;
51475;SDS011;37554;50.362;7.568;2022-10-17T08:48:24;3.42;;;1.05;;
51475;SDS011;37554;50.362;7.568;2022-10-17T08:56:00;2.00;;;1.30;;
51475;SDS011;37554;50.362;7.568;2022-10-17T08:58:37;2.25;;;1.45;;
51475;SDS011;37554;50.362;7.568;2022-10-17T09:03:44;3.15;;;1.55;;
51475;SDS011;37554;50.362;7.568;2022-10-17T09:06:21;4.38;;;1.45;;
51475;SDS011;37554;50.362;7.568;2022-10-17T09:09:24;4.68;;;1.70;;
51475;SDS011;37554;50.362;7.568;2022-10-17T09:17:07;4.38;;;1.45;;
51475;SDS011;37554;50.362;7.568;2022-10-17T09:22:48;3.03;;;1.50;;
51475;SDS011;37554;50.362;7.568;2022-10-17T09:25:23;2.45;;;1.33;;
51475;SDS011;37554;50.362;7.568;2022-10-17T09:27:52;1.63;;;1.42;;
51475;SDS011;37554;50.362;7.568;2022-10-17T09:30:37;5.00;;;1.80;;
51475;SDS011;37554;50.362;7.568;2022-10-17T09:33:10;4.65;;;1.80;;
51475;SDS011;37554;50.362;7.568;2022-10-17T09:35:37;3.17;;;1.77;;
51475;SDS011;37554;50.362;7.568;2022-10-17T09:38:03;4.40;;;1.98;;
51475;SDS011;37554;50.362;7.568;2022-10-17T09:40:33;3.78;;;1.70;;
51475;SDS011;37554;50.362;7.568;2022-10-17T09:43:00;3.83;;;1.30;;
51475;SDS011;37554;50.362;7.568;2022-10-17T09:45:29;3.67;;;1.85;;
51475;SDS011;37554;50.362;7.568;2022-10-17T09:50:53;2.20;;;1.60;;
51475;SDS011;37554;50.362;7.568;2022-10-17T09:53:25;3.97;;;1.58;;
51475;SDS011;37554;50.362;7.568;2022-10-17T09:56:09;3.45;;;1.80;;
51475;SDS011;37554;50.362;7.568;2022-10-17T09:58:47;3.72;;;1.85;;
51475;SDS011;37554;50.362;7.568;2022-10-17T10:01:25;3.60;;;1.90;;
51475;SDS011;37554;50.362;7.568;2022-10-17T10:04:11;4.22;;;1.83;;
51475;SDS011;37554;50.362;7.568;2022-10-17T10:06:39;4.43;;;1.77;;
51475;SDS011;37554;50.362;7.568;2022-10-17T10:09:15;3.83;;;1.48;;
51475;SDS011;37554;50.362;7.568;2022-10-17T10:11:50;6.50;;;1.70;;
51475;SDS011;37554;50.362;7.568;2022-10-17T10:14:23;4.40;;;2.03;;
51475;SDS011;37554;50.362;7.568;2022-10-17T10:16:53;6.65;;;1.50;;
51475;SDS011;37554;50.362;7.568;2022-10-17T10:22:00;6.18;;;1.77;;
51475;SDS011;37554;50.362;7.568;2022-10-17T10:24:38;4.30;;;2.03;;
51475;SDS011;37554;50.362;7.568;2022-10-17T10:27:03;2.90;;;1.92;;
51475;SDS011;37554;50.362;7.568;2022-10-17T10:29:36;3.08;;;1.60;;
51475;SDS011;37554;50.362;7.568;2022-10-17T10:35:18;2.63;;;1.67;;
51475;SDS011;37554;50.362;7.568;2022-10-17T10:37:53;3.70;;;1.67;;
51475;SDS011;37554;50.362;7.568;2022-10-17T10:40:29;3.78;;;1.50;;
51475;SDS011;37554;50.362;7.568;2022-10-17T10:43:01;1.98;;;1.80;;
51475;SDS011;37554;50.362;7.568;2022-10-17T10:45:28;2.35;;;1.63;;
51475;SDS011;37554;50.362;7.568;2022-10-17T10:50:44;3.08;;;1.63;;
51475;SDS011;37554;50.362;7.568;2022-10-17T10:55:54;2.28;;;1.75;;
51475;SDS011;37554;50.362;7.568;2022-10-17T11:00:59;3.85;;;1.58;;
51475;SDS011;37554;50.362;7.568;2022-10-17T11:03:32;4.07;;;1.60;;
51475;SDS011;37554;50.362;7.568;2022-10-17T11:06:13;2.80;;;1.52;;
51475;SDS011;37554;50.362;7.568;2022-10-17T11:08:49;3.15;;;1.42;;
51475;SDS011;37554;50.362;7.568;2022-10-17T11:11:47;2.85;;;1.60;;
51475;SDS011;37554;50.362;7.568;2022-10-17T11:14:28;3.25;;;1.48;;
51475;SDS011;37554;50.362;7.568;2022-10-17T11:19:44;3.22;;;1.50;;
51475;SDS011;37554;50.362;7.568;2022-10-17T11:22:22;4.50;;;1.40;;
51475;SDS011;37554;50.362;7.568;2022-10-17T11:25:05;3.70;;;1.60;;
51475;SDS011;37554;50.362;7.568;2022-10-17T11:27:37;3.15;;;1.30;;
51475;SDS011;37554;50.362;7.568;2022-10-17T11:30:03;2.85;;;1.60;;
51475;SDS011;37554;50.362;7.568;2022-10-17T11:32:37;2.72;;;1.38;;
51475;SDS011;37554;50.362;7.568;2022-10-17T11:35:15;3.35;;;1.70;;
51475;SDS011;37554;50.362;7.568;2022-10-17T11:37:57;2.95;;;1.50;;
51475;SDS011;37554;50.362;7.568;2022-10-17T11:40:29;6.68;;;1.40;;
51475;SDS011;37554;50.362;7.568;2022-10-17T11:42:59;3.40;;;1.40;;
51475;SDS011;37554;50.362;7.568;2022-10-17T11:45:32;2.63;;;1.50;;
51475;SDS011;37554;50.362;7.568;2022-10-17T11:48:16;5.00;;;1.50;;
51475;SDS011;37554;50.362;7.568;2022-10-17T11:50:48;2.90;;;1.45;;
51475;SDS011;37554;50.362;7.568;2022-10-17T11:53:23;2.15;;;1.30;;
51475;SDS011;37554;50.362;7.568;2022-10-17T11:55:52;2.10;;;1.20;;
51475;SDS011;37554;50.362;7.568;2022-10-17T11:59:23;2.25;;;1.50;;
51475;SDS011;37554;50.362;7.568;2022-10-17T12:01:29;2.57;;;1.57;;
51475;SDS011;37554;50.362;7.568;2022-10-17T12:04:11;2.20;;;1.55;;
51475;SDS011;37554;50.362;7.568;2022-10-17T12:07:07;2.92;;;1.38;;
51475;SDS011;37554;50.362;7.568;2022-10-17T12:09:45;4.18;;;1.33;;
51475;SDS011;37554;50.362;7.568;2022-10-17T12:12:22;2.05;;;1.63;;
51475;SDS011;37554;50.362;7.568;2022-10-17T12:14:53;1.92;;;1.33;;
51475;SDS011;37554;50.362;7.568;2022-10-17T12:17:42;3.30;;;1.50;;
51475;SDS011;37554;50.362;7.568;2022-10-17T12:22:50;2.00;;;1.38;;
51475;SDS011;37554;50.362;7.568;2022-10-17T12:25:18;2.85;;;1.92;;
51475;SDS011;37554;50.362;7.568;2022-10-17T12:27:50;2.00;;;1.50;;
51475;SDS011;37554;50.362;7.568;2022-10-17T12:30:43;3.60;;;1.63;;
51475;SDS011;37554;50.362;7.568;2022-10-17T12:33:32;3.15;;;1.50;;
51475;SDS011;37554;50.362;7.568;2022-10-17T12:38:45;3.47;;;1.60;;
51475;SDS011;37554;50.362;7.568;2022-10-17T12:41:12;4.13;;;1.85;;
51475;SDS011;37554;50.362;7.568;2022-10-17T12:43:49;2.45;;;1.52;;
51475;SDS011;37554;50.362;7.568;2022-10-17T12:52:05;3.67;;;1.50;;
51475;SDS011;37554;50.362;7.568;2022-10-17T12:54:39;3.75;;;1.55;;
51475;SDS011;37554;50.362;7.568;2022-10-17T12:57:16;3.10;;;1.90;;
51475;SDS011;37554;50.362;7.568;2022-10-17T12:59:46;4.10;;;1.88;;
51475;SDS011;37554;50.362;7.568;2022-10-17T13:02:16;4.15;;;1.63;;
51475;SDS011;37554;50.362;7.568;2022-10-17T13:04:45;1.80;;;1.45;;
51475;SDS011;37554;50.362;7.568;2022-10-17T13:07:17;3.53;;;1.80;;
51475;SDS011;37554;50.362;7.568;2022-10-17T13:09:45;2.42;;;1.60;;
51475;SDS011;37554;50.362;7.568;2022-10-17T13:12:12;3.75;;;1.42;;
51475;SDS011;37554;50.362;7.568;2022-10-17T13:14:42;4.50;;;1.40;;
51475;SDS011;37554;50.362;7.568;2022-10-17T13:17:20;2.15;;;1.60;;
51475;SDS011;37554;50.362;7.568;2022-10-17T13:19:51;4.63;;;2.25;;
51475;SDS011;37554;50.362;7.568;2022-10-17T13:22:19;3.85;;;1.83;;
51475;SDS011;37554;50.362;7.568;2022-10-17T13:24:50;3.33;;;1.50;;
51475;SDS011;37554;50.362;7.568;2022-10-17T13:27:27;2.50;;;1.38;;
51475;SDS011;37554;50.362;7.568;2022-10-17T13:29:55;2.30;;;1.65;;
51475;SDS011;37554;50.362;7.568;2022-10-17T13:32:22;4.35;;;1.77;;
51475;SDS011;37554;50.362;7.568;2022-10-17T13:35:08;5.40;;;1.90;;
51475;SDS011;37554;50.362;7.568;2022-10-17T13:37:36;2.30;;;1.35;;
51475;SDS011;37554;50.362;7.568;2022-10-17T13:40:06;3.90;;;1.73;;
51475;SDS011;37554;50.362;7.568;2022-10-17T13:42:39;2.03;;;1.65;;
51475;SDS011;37554;50.362;7.568;2022-10-17T13:45:16;2.13;;;1.55;;
51475;SDS011;37554;50.362;7.568;2022-10-17T13:47:51;3.10;;;1.50;;
51475;SDS011;37554;50.362;7.568;2022-10-17T13:50:22;2.50;;;1.50;;
51475;SDS011;37554;50.362;7.568;2022-10-17T13:55:57;4.13;;;1.70;;
51475;SDS011;37554;50.362;7.568;2022-10-17T13:58:49;1.73;;;1.40;;
51475;SDS011;37554;50.362;7.568;2022-10-17T14:01:17;2.25;;;1.40;;
51475;SDS011;37554;50.362;7.568;2022-10-17T14:03:45;3.60;;;1.60;;
51475;SDS011;37554;50.362;7.568;2022-10-17T14:06:13;3.90;;;1.50;;
51475;SDS011;37554;50.362;7.568;2022-10-17T14:08:48;4.32;;;1.60;;
51475;SDS011;37554;50.362;7.568;2022-10-17T14:11:31;4.97;;;1.65;;
51475;SDS011;37554;50.362;7.568;2022-10-17T14:14:04;13.68;;;3.92;;
51475;SDS011;37554;50.362;7.568;2022-10-17T14:16:39;14.20;;;4.85;;
51475;SDS011;37554;50.362;7.568;2022-10-17T14:19:14;13.73;;;4.75;;
51475;SDS011;37554;50.362;7.568;2022-10-17T14:21:48;13.73;;;4.32;;
51475;SDS011;37554;50.362;7.568;2022-10-17T14:26:50;13.30;;;4.18;;
51475;SDS011;37554;50.362;7.568;2022-10-17T14:29:30;11.10;;;4.15;;
51475;SDS011;37554;50.362;7.568;2022-10-17T14:32:13;11.88;;;4.00;;
51475;SDS011;37554;50.362;7.568;2022-10-17T14:34:42;8.95;;;3.60;;
51475;SDS011;37554;50.362;7.568;2022-10-17T14:37:56;11.70;;;3.95;;
51475;SDS011;37554;50.362;7.568;2022-10-17T14:39:59;9.23;;;3.50;;
51475;SDS011;37554;50.362;7.568;2022-10-17T14:42:26;9.52;;;2.78;;
51475;SDS011;37554;50.362;7.568;2022-10-17T14:44:53;8.35;;;3.00;;
51475;SDS011;37554;50.362;7.568;2022-10-17T14:47:21;11.18;;;2.72;;
51475;SDS011;37554;50.362;7.568;2022-10-17T14:49:51;8.88;;;3.35;;
51475;SDS011;37554;50.362;7.568;2022-10-17T14:52:29;6.22;;;2.67;;
51475;SDS011;37554;50.362;7.568;2022-10-17T14:54:56;5.97;;;2.60;;
51475;SDS011;37554;50.362;7.568;2022-10-17T14:57:24;5.78;;;2.65;;
51475;SDS011;37554;50.362;7.568;2022-10-17T14:59:54;5.43;;;2.47;;
51475;SDS011;37554;50.362;7.568;2022-10-17T15:02:24;6.03;;;2.50;;
51475;SDS011;37554;50.362;7.568;2022-10-17T15:04:51;6.18;;;2.40;;
51475;SDS011;37554;50.362;7.568;2022-10-17T15:07:17;4.97;;;2.67;;
51475;SDS011;37554;50.362;7.568;2022-10-17T15:09:46;7.07;;;2.30;;
51475;SDS011;37554;50.362;7.568;2022-10-17T15:12:13;9.68;;;2.38;;
51475;SDS011;37554;50.362;7.568;2022-10-17T15:14:43;8.38;;;2.38;;
51475;SDS011;37554;50.362;7.568;2022-10-17T15:17:14;5.97;;;2.38;;
51475;SDS011;37554;50.362;7.568;2022-10-17T15:19:43;3.20;;;2.03;;
51475;SDS011;37554;50.362;7.568;2022-10-17T15:22:08;3.92;;;2.03;;
51475;SDS011;37554;50.362;7.568;2022-10-17T15:24:34;4.90;;;1.90;;
51475;SDS011;37554;50.362;7.568;2022-10-17T15:27:00;4.35;;;2.42;;
51475;SDS011;37554;50.362;7.568;2022-10-17T15:29:25;6.70;;;2.10;;
51475;SDS011;37554;50.362;7.568;2022-10-17T15:31:51;5.10;;;2.17;;
51475;SDS011;37554;50.362;7.568;2022-10-17T15:34:16;5.53;;;1.80;;
51475;SDS011;37554;50.362;7.568;2022-10-17T15:36:47;4.90;;;1.75;;
51475;SDS011;37554;50.362;7.568;2022-10-17T15:39:14;4.35;;;2.13;;
51475;SDS011;37554;50.362;7.568;2022-10-17T15:41:40;3.20;;;1.95;;
51475;SDS011;37554;50.362;7.568;2022-10-17T15:44:05;4.28;;;2.00;;
51475;SDS011;37554;50.362;7.568;2022-10-17T15:46:32;3.55;;;1.70;;
51475;SDS011;37554;50.362;7.568;2022-10-17T15:49:02;3.42;;;1.75;;
51475;SDS011;37554;50.362;7.568;2022-10-17T15:51:31;2.00;;;1.55;;
51475;SDS011;37554;50.362;7.568;2022-10-17T15:53:57;4.68;;;1.88;;
51475;SDS011;37554;50.362;7.568;2022-10-17T15:56:26;5.38;;;2.00;;
51475;SDS011;37554;50.362;7.568;2022-10-17T15:58:54;4.90;;;1.95;;
51475;SDS011;37554;50.362;7.568;2022-10-17T16:01:22;4.63;;;1.77;;
51475;SDS011;37554;50.362;7.568;2022-10-17T16:03:50;3.65;;;1.60;;
51475;SDS011;37554;50.362;7.568;2022-10-17T16:06:16;5.43;;;1.60;;
51475;SDS011;37554;50.362;7.568;2022-10-17T16:08:43;2.47;;;1.65;;
51475;SDS011;37554;50.362;7.568;2022-10-17T16:11:16;3.83;;;2.00;;
51475;SDS011;37554;50.362;7.568;2022-10-17T16:13:47;3.80;;;1.88;;
51475;SDS011;37554;50.362;7.568;2022-10-17T16:16:15;2.95;;;1.77;;
51475;SDS011;37554;50.362;7.568;2022-10-17T16:18:41;3.92;;;1.80;;
51475;SDS011;37554;50.362;7.568;2022-10-17T16:21:08;4.25;;;1.90;;
51475;SDS011;37554;50.362;7.568;2022-10-17T16:23:36;3.35;;;1.90;;
51475;SDS011;37554;50.362;7.568;2022-10-17T16:26:02;5.07;;;1.50;;
51475;SDS011;37554;50.362;7.568;2022-10-17T16:28:27;2.20;;;1.52;;
51475;SDS011;37554;50.362;7.568;2022-10-17T16:30:53;2.25;;;1.70;;
51475;SDS011;37554;50.362;7.568;2022-10-17T16:33:19;2.67;;;1.60;;
51475;SDS011;37554;50.362;7.568;2022-10-17T16:35:44;5.63;;;1.77;;
51475;SDS011;37554;50.362;7.568;2022-10-17T16:38:11;3.38;;;1.77;;
51475;SDS011;37554;50.362;7.568;2022-10-17T16:40:37;7.75;;;1.70;;
51475;SDS011;37554;50.362;7.568;2022-10-17T16:43:04;4.30;;;1.95;;
51475;SDS011;37554;50.362;7.568;2022-10-17T16:45:30;2.35;;;1.50;;
51475;SDS011;37554;50.362;7.568;2022-10-17T16:47:55;2.90;;;1.55;;